Time;durP1;ratioP1;P1;durP2;ratioP2;P2;SDS_P1;SDS_P2;PMS_P1;PMS_P2;Temp;Humidity;BMP_temperature;BMP_pressure;BME280_temperature;BME280_humidity;BME280_pressure;Samples;Min_cycle;Max_cycle;Signal;HPM_P1;HPM_P2
2021/10/16 00:02:17;;;;;;;13.03;5.70;;;;;;;10.38;78.35;101586.56;5041575;28;20188;-71
2021/10/16 00:04:43;;;;;;;13.43;4.43;;;;;;;10.47;77.68;101588.50;5042318;28;20190;-71
2021/10/16 00:07:08;;;;;;;11.20;4.50;;;;;;;10.49;77.58;101593.78;5041797;28;20181;-71
2021/10/16 00:09:33;;;;;;;11.13;4.07;;;;;;;10.38;77.45;101599.59;5041839;28;20189;-71
2021/10/16 00:11:58;;;;;;;9.50;4.10;;;;;;;10.19;78.31;101595.63;5042084;28;20220;-71
2021/10/16 00:14:24;;;;;;;11.90;3.87;;;;;;;10.47;77.75;101593.72;5041754;28;20221;-72
2021/10/16 00:16:49;;;;;;;8.70;3.90;;;;;;;10.35;77.98;101604.75;5041663;28;20170;-70
2021/10/16 00:19:15;;;;;;;9.97;3.37;;;;;;;10.25;78.87;101600.13;5042019;28;20228;-72
2021/10/16 00:21:40;;;;;;;6.23;4.30;;;;;;;10.38;78.39;101597.00;5041705;28;20539;-75
2021/10/16 00:24:06;;;;;;;5.83;3.60;;;;;;;10.23;79.08;101607.03;5041445;28;20197;-69
2021/10/16 00:26:33;;;;;;;7.30;4.10;;;;;;;10.37;78.41;101608.25;5041960;28;20198;-72
2021/10/16 00:28:58;;;;;;;7.80;3.80;;;;;;;10.38;78.12;101606.56;5041417;28;20599;-70
2021/10/16 00:31:24;;;;;;;8.23;3.67;;;;;;;10.39;78.82;101611.81;5041141;28;20498;-72
2021/10/16 00:33:49;;;;;;;13.23;3.97;;;;;;;10.54;78.02;101610.38;5024647;28;20178;-71
2021/10/16 00:36:15;;;;;;;8.60;3.90;;;;;;;10.72;77.40;101607.34;5041355;28;20441;-70
2021/10/16 00:38:40;;;;;;;8.93;4.13;;;;;;;10.78;77.32;101603.16;5041234;28;20182;-73
2021/10/16 00:41:06;;;;;;;12.67;4.33;;;;;;;10.78;77.02;101597.94;5041591;28;20419;-69
2021/10/16 00:43:31;;;;;;;10.60;3.93;;;;;;;10.55;77.86;101606.94;5041329;28;20543;-73
2021/10/16 00:45:56;;;;;;;7.47;4.10;;;;;;;10.81;77.56;101611.88;5041824;28;20224;-70
2021/10/16 00:48:22;;;;;;;9.13;3.90;;;;;;;10.71;77.82;101611.66;5049073;28;20205;-72
2021/10/16 00:50:47;;;;;;;6.93;4.10;;;;;;;10.74;78.17;101614.38;5048974;28;20197;-71
2021/10/16 00:53:13;;;;;;;9.47;3.73;;;;;;;10.73;78.34;101614.31;5047474;28;20222;-74
2021/10/16 00:55:39;;;;;;;7.10;3.90;;;;;;;10.72;78.60;101618.66;5026632;28;20528;-73
2021/10/16 00:58:04;;;;;;;12.37;5.20;;;;;;;10.81;78.07;101607.56;5044011;28;20288;-77
2021/10/16 01:00:30;;;;;;;8.93;3.90;;;;;;;10.65;79.05;101621.97;5060761;28;20255;-76
2021/10/16 01:02:56;;;;;;;9.00;4.30;;;;;;;10.96;78.26;101617.47;5061181;28;20194;-77
2021/10/16 01:05:21;;;;;;;9.60;4.30;;;;;;;10.84;78.02;101622.38;5061080;28;20205;-75
2021/10/16 01:07:47;;;;;;;7.67;4.50;;;;;;;10.72;79.45;101616.03;5060757;28;20196;-76
2021/10/16 01:10:13;;;;;;;10.20;4.30;;;;;;;10.83;78.70;101594.56;5044430;28;20252;-77
2021/10/16 01:12:39;;;;;;;9.07;4.40;;;;;;;11.06;78.25;101593.31;5060701;28;20193;-75
2021/10/16 01:15:12;;;;;;;12.27;4.43;;;;;;;11.05;78.02;101586.31;5062712;28;20779;-72
2021/10/16 01:17:37;;;;;;;10.17;4.60;;;;;;;11.06;77.71;101587.22;5063916;28;20391;-72
2021/10/16 01:20:08;;;;;;;6.27;4.13;;;;;;;11.00;78.34;101592.28;5060972;28;20521;-72
2021/10/16 01:22:37;;;;;;;7.20;4.27;;;;;;;10.77;78.70;101593.56;5062133;28;20435;-75
2021/10/16 01:25:06;;;;;;;10.03;4.20;;;;;;;10.63;79.29;101594.97;5065975;28;20808;-73
2021/10/16 01:27:32;;;;;;;13.40;4.60;;;;;;;10.77;79.30;101603.09;5064941;28;20419;-73
2021/10/16 01:29:58;;;;;;;8.00;4.37;;;;;;;10.86;79.26;101594.59;5065331;28;20399;-72
2021/10/16 01:32:23;;;;;;;12.40;5.17;;;;;;;10.69;80.05;101604.66;5065367;28;20458;-73
2021/10/16 01:34:49;;;;;;;9.60;3.87;;;;;;;10.87;79.47;101599.00;5046493;28;20180;-74
2021/10/16 01:37:14;;;;;;;10.77;4.77;;;;;;;10.84;79.56;101604.13;5063149;28;20256;-75
2021/10/16 01:39:39;;;;;;;7.47;4.17;;;;;;;12.13;85.77;101598.00;5060826;28;20211;-62
2021/10/16 01:42:04;;;;;;;8.70;3.47;;;;;;;14.15;73.24;101589.22;5059805;28;20259;-64
2021/10/16 01:44:30;;;;;;;8.27;3.80;;;;;;;13.73;68.97;101586.22;5060085;28;20166;-70
2021/10/16 01:46:56;;;;;;;8.40;4.10;;;;;;;11.79;74.00;101600.84;5044543;28;20162;-70
2021/10/16 01:49:21;;;;;;;7.60;3.53;;;;;;;10.95;77.58;101598.28;5061682;28;20276;-70
2021/10/16 01:51:48;;;;;;;6.23;3.13;;;;;;;10.73;78.39;101606.47;5060123;28;20225;-69
2021/10/16 01:54:14;;;;;;;7.10;3.60;;;;;;;10.94;78.58;101609.56;5060568;28;20189;-70
2021/10/16 01:56:40;;;;;;;4.13;3.73;;;;;;;10.74;78.28;101609.16;5059734;28;20395;-70
2021/10/16 01:59:20;;;;;;;8.37;4.60;;;;;;;10.55;79.55;101604.34;5059950;28;20415;-69
2021/10/16 02:01:46;;;;;;;5.93;4.27;;;;;;;10.57;79.15;101603.53;5059560;28;20166;-69
2021/10/16 02:04:13;;;;;;;8.17;4.67;;;;;;;10.54;79.79;101599.97;5059423;28;20489;-71
2021/10/16 02:06:38;;;;;;;8.80;5.07;;;;;;;10.28;80.84;101603.69;5039451;28;20563;-71
2021/10/16 02:09:04;;;;;;;7.47;5.00;;;;;;;10.23;81.19;101604.41;5039578;28;20413;-71
2021/10/16 02:11:30;;;;;;;6.57;4.87;;;;;;;9.97;81.85;101602.00;5039591;28;20387;-70
2021/10/16 02:13:56;;;;;;;8.37;5.20;;;;;;;10.38;80.76;101601.34;5039759;28;20417;-71
2021/10/16 02:16:21;;;;;;;8.00;5.30;;;;;;;10.30;80.68;101606.31;5039458;28;20182;-71
2021/10/16 02:18:47;;;;;;;10.47;4.90;;;;;;;10.20;81.30;101607.81;5038730;28;20174;-70
2021/10/16 02:21:12;;;;;;;11.77;5.50;;;;;;;10.01;82.34;101601.28;5039622;28;20255;-71
2021/10/16 02:23:37;;;;;;;11.73;5.47;;;;;;;10.24;81.77;101601.84;5039214;28;20173;-71
2021/10/16 02:26:03;;;;;;;10.03;5.00;;;;;;;10.12;82.15;101601.53;5038641;28;20202;-71
2021/10/16 02:28:28;;;;;;;8.40;5.90;;;;;;;10.27;81.22;101603.66;5039647;28;20162;-71
2021/10/16 02:30:53;;;;;;;9.73;5.80;;;;;;;10.47;80.86;101601.53;5038408;28;20216;-72
2021/10/16 02:33:19;;;;;;;11.30;5.53;;;;;;;10.58;80.64;101597.47;5039155;28;20185;-71
2021/10/16 02:35:44;;;;;;;6.03;4.73;;;;;;;10.51;80.78;101610.31;5039624;28;20159;-73
2021/10/16 02:38:09;;;;;;;9.53;6.27;;;;;;;10.39;81.00;101606.59;5039030;28;20170;-71
2021/10/16 02:40:35;;;;;;;10.43;5.23;;;;;;;10.48;81.34;101605.03;5039005;28;20464;-71
2021/10/16 02:43:02;;;;;;;7.97;5.40;;;;;;;10.53;80.98;101606.03;5039404;28;20167;-71
2021/10/16 02:45:27;;;;;;;9.83;5.40;;;;;;;10.42;81.18;101606.66;5038131;28;20591;-71
2021/10/16 02:47:52;;;;;;;8.33;5.00;;;;;;;10.35;81.66;101609.97;5038643;28;20513;-71
2021/10/16 02:50:18;;;;;;;9.30;5.73;;;;;;;10.64;80.79;101611.50;5039111;28;20178;-68
2021/10/16 02:52:43;;;;;;;12.43;6.77;;;;;;;10.67;80.33;101604.63;5038472;28;20233;-71
2021/10/16 02:55:08;;;;;;;11.13;5.40;;;;;;;10.73;80.03;101619.53;5038667;28;20213;-70
2021/10/16 02:57:34;;;;;;;7.10;5.37;;;;;;;10.70;80.32;101616.84;5039024;28;20542;-70
2021/10/16 02:59:59;;;;;;;8.23;5.70;;;;;;;10.71;80.16;101616.88;5038591;28;20173;-70
2021/10/16 03:02:25;;;;;;;10.53;5.23;;;;;;;10.54;80.78;101623.41;5038182;28;20217;-70
2021/10/16 03:04:50;;;;;;;6.97;4.83;;;;;;;10.41;81.20;101610.09;5038814;28;20224;-69
2021/10/16 03:07:16;;;;;;;9.53;5.10;;;;;;;10.72;80.42;101608.22;5038502;28;20162;-70
2021/10/16 03:09:41;;;;;;;8.50;5.87;;;;;;;10.50;80.64;101608.56;5038407;28;20174;-69
2021/10/16 03:12:07;;;;;;;9.90;5.73;;;;;;;10.73;79.81;101607.38;5038789;28;20189;-70
2021/10/16 03:14:32;;;;;;;8.30;5.60;;;;;;;10.84;79.93;101604.13;5021069;28;20181;-70
2021/10/16 03:16:57;;;;;;;14.43;7.53;;;;;;;10.76;79.62;101604.84;5038419;28;20188;-70
2021/10/16 03:19:23;;;;;;;9.57;5.30;;;;;;;10.68;80.79;101606.38;5038694;28;20228;-70
2021/10/16 03:21:48;;;;;;;8.60;5.20;;;;;;;10.72;80.02;101621.25;5038132;28;20414;-71
2021/10/16 03:24:13;;;;;;;11.47;5.50;;;;;;;10.61;80.52;101621.00;5038464;28;20171;-70
2021/10/16 03:26:38;;;;;;;9.93;5.27;;;;;;;10.58;80.31;101620.94;5038680;28;20190;-71
2021/10/16 03:29:04;;;;;;;9.20;5.23;;;;;;;10.67;80.44;101615.06;5038142;28;20185;-71
2021/10/16 03:31:29;;;;;;;14.13;5.53;;;;;;;10.75;79.71;101623.94;5038075;28;20177;-70
2021/10/16 03:33:54;;;;;;;8.83;4.80;;;;;;;10.10;81.95;101622.31;5038661;28;20566;-70
2021/10/16 03:36:20;;;;;;;7.80;4.73;;;;;;;10.41;82.41;101630.94;5038131;28;20186;-70
2021/10/16 03:38:45;;;;;;;18.97;12.80;;;;;;;10.40;81.78;101631.78;5038140;28;20265;-70
2021/10/16 03:41:11;;;;;;;8.53;5.30;;;;;;;10.35;81.49;101628.22;5038338;28;20163;-70
2021/10/16 03:43:36;;;;;;;11.27;5.87;;;;;;;10.58;80.69;101633.06;5037916;28;20187;-70
2021/10/16 03:46:01;;;;;;;9.10;5.70;;;;;;;10.53;81.01;101627.78;5037937;28;20476;-71
2021/10/16 03:48:26;;;;;;;9.13;5.07;;;;;;;10.50;80.75;101629.41;5038558;28;20212;-70
2021/10/16 03:50:52;;;;;;;9.07;5.43;;;;;;;10.35;81.36;101623.00;5037931;28;20174;-71
2021/10/16 03:53:17;;;;;;;11.30;5.03;;;;;;;10.24;81.52;101624.41;5037966;28;20225;-70
2021/10/16 03:55:42;;;;;;;7.90;5.40;;;;;;;10.29;81.28;101622.78;5040093;28;20166;-70
2021/10/16 03:58:08;;;;;;;9.93;5.10;;;;;;;10.37;80.53;101621.28;5039515;28;20536;-70
2021/10/16 04:00:33;;;;;;;9.87;5.80;;;;;;;10.44;80.03;101612.81;5039554;28;20185;-70
2021/10/16 04:03:04;;;;;;;9.27;5.67;;;;;;;10.46;79.85;101625.88;5038976;28;20193;-70
2021/10/16 04:05:30;;;;;;;10.63;5.63;;;;;;;10.34;80.41;101617.72;5037792;28;20204;-70
2021/10/16 04:07:55;;;;;;;22.03;6.03;;;;;;;10.32;80.54;101616.78;5037933;28;20406;-71
2021/10/16 04:10:20;;;;;;;15.67;6.50;;;;;;;9.92;82.07;101625.34;5037566;28;20421;-72
2021/10/16 04:12:46;;;;;;;10.17;5.30;;;;;;;10.08;81.22;101621.41;5040359;28;20256;-71
2021/10/16 04:15:11;;;;;;;12.40;5.50;;;;;;;9.92;81.75;101624.47;5006198;28;20424;-71
2021/10/16 04:17:36;;;;;;;8.57;4.70;;;;;;;9.82;82.67;101623.31;5039626;28;20185;-70
2021/10/16 04:20:02;;;;;;;10.33;5.80;;;;;;;9.65;83.24;101622.88;5038700;28;20418;-70
2021/10/16 04:22:27;;;;;;;11.60;5.87;;;;;;;9.54;83.57;101626.88;5038837;28;20170;-70
2021/10/16 04:24:52;;;;;;;7.00;5.13;;;;;;;9.69;82.61;101621.25;5038613;28;20222;-70
2021/10/16 04:27:18;;;;;;;9.10;5.10;;;;;;;9.73;83.62;101620.50;5020488;28;20192;-70
2021/10/16 04:29:43;;;;;;;10.43;5.20;;;;;;;9.54;83.51;101622.56;5037880;28;20162;-71
2021/10/16 04:32:09;;;;;;;8.00;4.83;;;;;;;9.52;83.59;101624.25;5037467;28;20433;-71
2021/10/16 04:34:34;;;;;;;8.63;4.40;;;;;;;9.61;83.00;101615.81;5037799;28;20516;-69
2021/10/16 04:36:59;;;;;;;8.43;4.90;;;;;;;9.63;82.66;101613.25;5020480;28;20209;-69
2021/10/16 04:39:27;;;;;;;9.27;5.23;;;;;;;9.51;83.35;101612.09;5038359;28;20170;-70
2021/10/16 04:41:52;;;;;;;11.77;5.63;;;;;;;9.76;82.54;101605.81;5039662;28;20170;-71
2021/10/16 04:44:18;;;;;;;8.97;4.97;;;;;;;9.71;82.32;101611.75;5041298;28;20669;-70
2021/10/16 04:46:43;;;;;;;7.97;4.63;;;;;;;9.47;82.78;101604.13;5041590;28;20563;-70
2021/10/16 04:49:09;;;;;;;11.40;5.20;;;;;;;9.68;83.05;101607.31;5041164;28;20170;-70
2021/10/16 04:51:34;;;;;;;8.00;5.30;;;;;;;9.68;82.42;101619.47;5023618;28;20214;-70
2021/10/16 04:53:59;;;;;;;10.90;4.80;;;;;;;9.51;83.13;101613.78;5041604;28;20163;-70
2021/10/16 04:56:25;;;;;;;9.30;5.33;;;;;;;9.73;82.49;101616.16;5023766;28;20198;-70
2021/10/16 04:58:50;;;;;;;7.93;4.90;;;;;;;9.90;81.62;101620.94;5041051;28;20162;-70
2021/10/16 05:01:15;;;;;;;8.10;5.00;;;;;;;9.69;82.31;101614.31;5041177;28;20536;-70
2021/10/16 05:03:41;;;;;;;8.30;4.77;;;;;;;9.49;82.37;101618.09;5040709;28;20233;-70
2021/10/16 05:06:06;;;;;;;8.50;5.57;;;;;;;9.53;82.90;101617.34;5040607;28;20305;-70
2021/10/16 05:08:31;;;;;;;11.23;5.57;;;;;;;9.62;81.86;101612.38;5041494;28;20424;-70
2021/10/16 05:10:57;;;;;;;8.00;5.60;;;;;;;9.46;82.97;101612.78;5040651;28;20185;-72
2021/10/16 05:13:22;;;;;;;7.57;5.10;;;;;;;9.47;82.20;101611.94;5040703;28;20189;-71
2021/10/16 05:15:48;;;;;;;9.03;5.30;;;;;;;9.60;81.86;101604.50;5040596;28;20197;-70
2021/10/16 05:18:13;;;;;;;9.70;4.90;;;;;;;9.56;81.81;101612.19;5040711;28;20572;-70
2021/10/16 05:20:38;;;;;;;13.77;8.13;;;;;;;9.60;82.20;101620.13;5023228;28;20167;-70
2021/10/16 05:23:04;;;;;;;8.07;4.70;;;;;;;9.78;80.70;101619.78;5041027;28;20181;-71
2021/10/16 05:25:29;;;;;;;15.37;9.80;;;;;;;9.50;82.23;101630.22;5023054;28;20206;-72
2021/10/16 05:27:54;;;;;;;13.93;10.30;;;;;;;9.45;82.84;101622.31;5040389;28;20176;-70
2021/10/16 05:30:20;;;;;;;11.90;5.87;;;;;;;9.41;81.79;101626.53;5040792;28;20194;-70
2021/10/16 05:32:45;;;;;;;11.40;5.77;;;;;;;9.47;81.43;101619.75;5040213;28;20228;-70
2021/10/16 05:35:11;;;;;;;9.60;5.30;;;;;;;9.36;83.01;101620.34;5040267;28;20176;-71
2021/10/16 05:37:36;;;;;;;11.97;5.13;;;;;;;9.31;82.55;101615.81;5040643;28;20320;-71
2021/10/16 05:40:02;;;;;;;11.47;7.23;;;;;;;9.34;82.38;101626.34;5040308;28;20244;-71
2021/10/16 05:42:28;;;;;;;9.10;5.83;;;;;;;9.51;81.61;101629.41;5040082;28;20170;-70
2021/10/16 05:44:54;;;;;;;8.40;5.00;;;;;;;8.95;83.08;101627.78;5040488;28;20442;-71
2021/10/16 05:47:22;;;;;;;9.83;5.17;;;;;;;9.22;81.97;101625.13;5039942;28;20174;-71
2021/10/16 05:49:48;;;;;;;9.43;5.10;;;;;;;9.24;82.09;101622.56;5040118;28;20584;-70
2021/10/16 05:52:13;;;;;;;11.83;5.00;;;;;;;9.28;81.34;101632.22;5039002;28;20547;-70
2021/10/16 05:54:38;;;;;;;12.60;5.00;;;;;;;9.24;81.99;101631.28;5039582;28;20205;-70
2021/10/16 05:57:04;;;;;;;10.53;5.43;;;;;;;9.02;82.57;101632.31;5039963;28;20177;-70
2021/10/16 05:59:29;;;;;;;10.70;5.70;;;;;;;9.36;81.48;101640.25;5039853;28;20256;-70
2021/10/16 06:01:54;;;;;;;7.97;5.30;;;;;;;9.26;81.69;101649.53;5039416;28;20166;-70
2021/10/16 06:04:20;;;;;;;7.97;4.87;;;;;;;9.35;81.15;101649.81;5022974;28;20189;-69
2021/10/16 06:06:45;;;;;;;6.03;5.10;;;;;;;9.42;80.58;101651.72;5039691;28;20198;-69
2021/10/16 06:09:10;;;;;;;7.50;4.80;;;;;;;9.22;81.65;101642.47;5039740;28;20181;-69
2021/10/16 06:11:36;;;;;;;6.53;4.80;;;;;;;9.16;81.88;101650.06;5039865;28;20553;-69
2021/10/16 06:14:01;;;;;;;9.73;5.20;;;;;;;9.24;81.51;101643.38;5039325;28;20174;-70
2021/10/16 06:16:27;;;;;;;10.67;4.90;;;;;;;9.16;81.48;101648.38;5022206;28;20170;-70
2021/10/16 06:18:52;;;;;;;10.70;4.90;;;;;;;9.57;80.39;101651.28;5039963;28;20516;-69
2021/10/16 06:21:17;;;;;;;6.70;5.20;;;;;;;9.68;79.62;101656.78;5039355;28;20177;-70
2021/10/16 06:23:43;;;;;;;7.33;4.77;;;;;;;9.57;80.50;101655.63;5039498;28;20175;-69
2021/10/16 06:26:08;;;;;;;8.30;4.43;;;;;;;9.75;79.43;101653.50;5039711;28;20285;-69
2021/10/16 06:28:34;;;;;;;7.20;5.17;;;;;;;9.85;78.55;101656.38;5039498;28;20537;-69
2021/10/16 06:30:59;;;;;;;7.90;5.27;;;;;;;10.06;78.23;101662.16;5039014;28;20193;-69
2021/10/16 06:33:25;;;;;;;8.00;5.33;;;;;;;10.20;77.18;101664.25;5039471;28;20167;-70
2021/10/16 06:35:51;;;;;;;10.33;5.50;;;;;;;10.20;77.43;101666.88;5039306;28;20166;-70
2021/10/16 06:38:16;;;;;;;8.90;4.97;;;;;;;10.20;76.97;101669.47;5039268;28;20564;-70
2021/10/16 06:40:42;;;;;;;6.33;4.50;;;;;;;10.40;76.36;101668.28;5038857;28;20417;-70
2021/10/16 06:43:07;;;;;;;9.93;5.03;;;;;;;10.45;75.76;101673.63;5021684;28;20170;-70
2021/10/16 06:45:33;;;;;;;7.90;4.30;;;;;;;10.51;75.88;101678.97;5038883;28;20206;-71
2021/10/16 06:47:58;;;;;;;8.67;4.20;;;;;;;10.34;77.06;101683.75;5039434;28;20233;-70
2021/10/16 06:50:23;;;;;;;8.63;4.63;;;;;;;10.34;76.22;101682.88;5038767;28;20200;-70
2021/10/16 06:52:49;;;;;;;6.00;4.10;;;;;;;10.03;77.00;101688.16;5040898;28;20222;-71
2021/10/16 06:55:14;;;;;;;7.70;4.23;;;;;;;10.31;76.79;101695.81;5041954;28;20170;-71
2021/10/16 06:57:39;;;;;;;9.60;5.00;;;;;;;10.44;76.66;101691.00;5040313;28;20182;-71
2021/10/16 07:00:05;;;;;;;10.47;4.33;;;;;;;10.51;75.38;101691.16;5038994;28;20177;-71
2021/10/16 07:02:31;;;;;;;5.13;4.23;;;;;;;10.45;75.78;101686.66;5024643;28;20217;-72
2021/10/16 07:04:56;;;;;;;4.83;4.30;;;;;;;10.47;75.87;101694.53;5041188;28;20518;-70
2021/10/16 07:07:21;;;;;;;6.77;5.03;;;;;;;10.63;75.29;101701.88;5042110;28;20247;-71
2021/10/16 07:09:47;;;;;;;8.70;4.73;;;;;;;10.51;75.55;101693.75;5041858;28;20170;-70
2021/10/16 07:12:12;;;;;;;5.73;4.50;;;;;;;10.96;74.17;101700.94;5038338;28;20167;-70
2021/10/16 07:14:37;;;;;;;7.23;4.97;;;;;;;11.00;73.49;101701.88;5038400;28;20170;-70
2021/10/16 07:17:03;;;;;;;7.87;4.20;;;;;;;10.99;73.70;101698.41;5039088;28;20166;-70
2021/10/16 07:19:28;;;;;;;7.70;4.67;;;;;;;10.97;73.75;101707.91;5038479;28;20174;-69
2021/10/16 07:21:53;;;;;;;7.27;5.07;;;;;;;10.77;74.36;101707.41;5038408;28;20189;-71
2021/10/16 07:24:19;;;;;;;5.80;3.90;;;;;;;10.75;74.78;101710.00;5038958;28;20224;-71
2021/10/16 07:26:44;;;;;;;10.80;5.50;;;;;;;10.82;74.43;101708.41;5038242;28;20332;-71
2021/10/16 07:29:10;;;;;;;8.17;4.30;;;;;;;10.67;74.44;101710.66;5038246;28;20174;-71
2021/10/16 07:31:35;;;;;;;8.03;4.60;;;;;;;10.85;74.51;101710.22;5038422;28;20166;-71
2021/10/16 07:34:00;;;;;;;5.57;4.03;;;;;;;10.75;74.90;101712.59;5038023;28;20268;-71
2021/10/16 07:36:32;;;;;;;7.07;4.53;;;;;;;10.90;74.16;101711.22;5021005;28;20182;-72
2021/10/16 07:38:57;;;;;;;8.90;5.37;;;;;;;10.64;75.34;101711.47;5038784;28;20174;-71
2021/10/16 07:41:23;;;;;;;6.10;4.10;;;;;;;10.87;74.54;101716.38;5038125;28;20828;-71
2021/10/16 07:43:48;;;;;;;5.90;4.30;;;;;;;10.70;75.24;101714.25;5038106;28;20597;-70
2021/10/16 07:46:13;;;;;;;7.67;4.90;;;;;;;10.93;73.62;101716.50;5038690;28;20248;-71
2021/10/16 07:48:38;;;;;;;4.57;4.13;;;;;;;11.09;73.35;101718.63;5038191;28;20540;-71
2021/10/16 07:51:04;;;;;;;8.83;6.17;;;;;;;10.95;73.52;101717.44;5037960;28;20169;-70
2021/10/16 07:53:29;;;;;;;6.13;5.33;;;;;;;11.22;73.15;101711.97;5038184;28;20225;-71
2021/10/16 07:55:54;;;;;;;8.30;5.10;;;;;;;11.35;72.46;101713.16;5037888;28;20166;-70
2021/10/16 07:58:22;;;;;;;8.30;5.90;;;;;;;11.59;71.72;101717.97;5037903;28;20528;-71
2021/10/16 08:00:47;;;;;;;6.30;4.90;;;;;;;11.58;71.69;101717.97;5038485;28;20174;-72
2021/10/16 08:03:12;;;;;;;6.30;4.67;;;;;;;11.54;71.55;101713.53;5037595;28;20465;-71
2021/10/16 08:05:38;;;;;;;6.83;5.10;;;;;;;11.46;71.24;101719.47;5037746;28;20202;-71
2021/10/16 08:08:03;;;;;;;7.67;5.23;;;;;;;11.27;72.06;101722.50;5038231;28;20528;-71
2021/10/16 08:10:28;;;;;;;8.53;5.23;;;;;;;11.28;71.92;101729.50;5037537;28;20209;-70
2021/10/16 08:12:54;;;;;;;9.03;5.30;;;;;;;11.84;70.79;101728.97;5037785;28;20166;-70
2021/10/16 08:15:19;;;;;;;8.30;5.77;;;;;;;11.89;69.95;101735.19;5038260;28;20217;-70
2021/10/16 08:17:45;;;;;;;8.03;5.50;;;;;;;11.48;72.18;101736.91;5041404;28;20221;-71
2021/10/16 08:20:10;;;;;;;5.77;5.17;;;;;;;11.17;73.10;101731.00;5041574;28;20181;-70
2021/10/16 08:22:41;;;;;;;7.43;6.23;;;;;;;11.58;71.78;101733.63;5042571;28;20228;-71
2021/10/16 08:25:07;;;;;;;5.63;4.93;;;;;;;11.79;70.81;101735.81;5041665;28;20194;-71
2021/10/16 08:27:32;;;;;;;7.40;5.20;;;;;;;11.84;71.17;101733.28;5041387;28;20416;-71
2021/10/16 08:29:58;;;;;;;6.90;5.30;;;;;;;12.13;69.32;101724.31;5042164;28;20474;-72
2021/10/16 08:32:23;;;;;;;6.93;5.90;;;;;;;12.25;69.56;101720.19;5041018;28;20170;-71
2021/10/16 08:34:48;;;;;;;7.00;5.40;;;;;;;12.51;68.61;101725.00;5041297;28;20170;-71
2021/10/16 08:37:14;;;;;;;8.87;5.40;;;;;;;12.91;67.00;101725.69;5041520;28;20178;-71
2021/10/16 08:39:39;;;;;;;8.67;5.50;;;;;;;13.45;65.58;101723.91;5041286;28;20188;-71
2021/10/16 08:42:04;;;;;;;6.33;4.60;;;;;;;13.29;65.59;101726.25;5041016;28;20220;-71
2021/10/16 08:44:30;;;;;;;6.20;4.90;;;;;;;13.40;65.22;101731.66;5041444;28;20567;-71
2021/10/16 08:46:57;;;;;;;12.40;4.80;;;;;;;13.37;64.63;101730.72;5041029;28;20213;-70
2021/10/16 08:49:24;;;;;;;8.67;5.03;;;;;;;13.19;65.15;101731.31;5024189;28;20512;-71
2021/10/16 08:51:49;;;;;;;7.70;6.47;;;;;;;13.21;65.28;101729.63;5023567;28;20497;-71
2021/10/16 08:54:14;;;;;;;7.60;4.70;;;;;;;13.54;64.17;101733.59;5040882;28;20402;-70
2021/10/16 08:56:40;;;;;;;5.33;4.00;;;;;;;13.43;64.23;101738.69;5040952;28;20200;-71
2021/10/16 08:59:05;;;;;;;5.00;4.23;;;;;;;13.76;63.22;101740.88;5040838;28;20178;-71
2021/10/16 09:01:30;;;;;;;7.80;4.63;;;;;;;13.76;62.61;101733.03;5040464;28;20174;-72
2021/10/16 09:03:57;;;;;;;7.30;4.70;;;;;;;14.46;60.85;101732.03;5041139;28;20204;-71
2021/10/16 09:06:27;;;;;;;6.67;4.53;;;;;;;15.58;57.81;101725.84;5040334;28;20194;-71
2021/10/16 09:08:52;;;;;;;5.73;4.60;;;;;;;17.05;53.49;101725.25;5040657;28;20861;-72
2021/10/16 09:11:36;;;;;;;5.57;3.90;;;;;;;16.39;55.09;101726.13;5040796;28;20458;-71
2021/10/16 09:14:06;;;;;;;5.03;4.00;;;;;;;15.86;55.91;101725.09;5040560;28;20206;-71
2021/10/16 09:16:33;;;;;;;6.20;4.47;;;;;;;17.34;52.97;101717.31;5040592;28;20408;-71
2021/10/16 09:19:08;;;;;;;6.80;4.30;;;;;;;17.19;52.08;101723.47;5040327;28;20408;-72
2021/10/16 09:21:34;;;;;;;6.73;4.23;;;;;;;16.77;52.91;101723.50;5039621;28;20814;-71
2021/10/16 09:24:02;;;;;;;5.77;4.20;;;;;;;17.45;51.45;101717.25;5040459;28;20467;-71
2021/10/16 09:26:28;;;;;;;5.53;4.20;;;;;;;18.07;49.61;101723.16;5040045;28;20465;-71
2021/10/16 09:28:58;;;;;;;6.67;4.10;;;;;;;18.50;49.04;101714.09;5041111;28;20455;-72
2021/10/16 09:31:31;;;;;;;6.30;3.93;;;;;;;16.83;52.70;101723.50;5024749;28;20280;-72
2021/10/16 09:33:56;;;;;;;7.30;4.23;;;;;;;16.11;55.49;101728.69;5040959;28;20435;-73
2021/10/16 09:36:23;;;;;;;5.37;4.20;;;;;;;15.48;56.56;101731.94;5040249;28;20421;-72
2021/10/16 09:38:49;;;;;;;6.20;3.83;;;;;;;15.31;57.31;101740.56;5040127;28;20484;-72
2021/10/16 09:41:33;;;;;;;6.50;3.77;;;;;;;14.99;58.10;101740.34;5023308;28;20496;-71
2021/10/16 09:43:59;;;;;;;4.10;3.57;;;;;;;14.80;58.35;101741.97;5040130;28;20178;-72
2021/10/16 09:46:24;;;;;;;7.43;3.87;;;;;;;14.75;58.33;101738.44;5039885;28;20464;-71
2021/10/16 09:48:51;;;;;;;5.20;3.70;;;;;;;14.87;58.19;101737.66;5039880;28;20166;-70
2021/10/16 09:51:17;;;;;;;7.00;3.67;;;;;;;14.92;58.41;101736.81;5041799;28;20751;-71
2021/10/16 09:53:47;;;;;;;5.53;4.00;;;;;;;14.66;58.89;101739.22;5049003;28;20202;-73
2021/10/16 09:56:14;;;;;;;9.43;3.90;;;;;;;14.49;58.65;101753.06;5051680;28;20444;-69
2021/10/16 09:58:40;;;;;;;6.53;3.73;;;;;;;14.29;59.47;101744.09;5059734;28;20498;-69
2021/10/16 10:01:09;;;;;;;8.13;4.17;;;;;;;14.89;58.93;101749.91;5042773;28;20424;-70
2021/10/16 10:03:36;;;;;;;7.23;3.77;;;;;;;15.68;56.30;101739.03;5039477;28;20433;-69
2021/10/16 10:06:02;;;;;;;6.20;3.80;;;;;;;17.38;51.53;101737.50;5038681;28;20513;-68
2021/10/16 10:08:27;;;;;;;5.20;3.50;;;;;;;18.03;51.43;101736.41;5046821;28;20505;-70
2021/10/16 10:10:53;;;;;;;6.30;4.10;;;;;;;18.43;48.90;101728.22;5041906;28;20177;-69
2021/10/16 10:13:18;;;;;;;7.73;4.40;;;;;;;17.98;50.16;101741.69;5043767;28;20539;-69
2021/10/16 10:15:44;;;;;;;6.57;3.37;;;;;;;18.12;49.39;101731.94;5062884;28;20450;-72
2021/10/16 10:20:56;;;;;;;6.70;3.23;;;;;;;18.03;48.97;101724.06;5061735;28;20439;-70
2021/10/16 10:23:22;;;;;;;7.67;3.00;;;;;;;17.67;49.52;101725.97;5042394;28;20639;-71
2021/10/16 10:25:48;;;;;;;7.27;3.60;;;;;;;17.42;51.40;101733.09;5049437;28;20487;-71
2021/10/16 10:28:13;;;;;;;9.50;3.33;;;;;;;17.95;48.90;101724.09;5039703;28;20487;-70
2021/10/16 10:30:40;;;;;;;5.40;3.73;;;;;;;17.58;49.53;101718.13;5038980;28;20329;-70
2021/10/16 10:33:20;;;;;;;9.07;4.03;;;;;;;17.97;49.29;101719.72;5039103;28;20166;-70
2021/10/16 10:36:17;;;;;;;5.60;3.57;;;;;;;16.69;50.15;101720.00;5039051;28;20417;-73
2021/10/16 10:38:42;;;;;;;8.17;3.93;;;;;;;16.38;51.43;101732.25;5038436;28;20409;-70
2021/10/16 10:41:22;;;;;;;6.47;3.90;;;;;;;16.15;52.08;101728.69;5038717;28;20411;-68
2021/10/16 10:43:48;;;;;;;7.27;3.80;;;;;;;15.81;52.93;101733.84;5038695;28;20170;-69
2021/10/16 10:46:13;;;;;;;4.90;3.57;;;;;;;16.25;52.36;101726.09;5037966;28;20460;-68
2021/10/16 10:48:45;;;;;;;9.13;3.93;;;;;;;16.82;52.20;101727.00;5038624;28;20172;-73
2021/10/16 10:51:26;;;;;;;10.60;4.20;;;;;;;16.62;51.73;101726.16;5038566;28;20566;-70
2021/10/16 10:54:08;;;;;;;6.70;3.80;;;;;;;15.62;54.23;101726.75;5037943;28;20441;-70
2021/10/16 10:56:41;;;;;;;7.40;3.90;;;;;;;16.03;53.65;101722.53;5037483;28;20428;-71
2021/10/16 10:59:08;;;;;;;5.67;3.63;;;;;;;14.87;55.96;101735.91;5040753;28;20421;-70
2021/10/16 11:02:01;;;;;;;7.37;3.53;;;;;;;15.20;55.59;101728.28;5058228;28;20428;-69
2021/10/16 11:04:51;;;;;;;5.57;3.70;;;;;;;15.22;56.51;101723.88;5058348;28;20509;-69
2021/10/16 11:07:40;;;;;;;4.67;3.10;;;;;;;15.45;55.88;101724.00;5058438;28;20689;-69
2021/10/16 11:10:06;;;;;;;6.07;3.33;;;;;;;15.15;56.95;101730.84;5040685;28;20717;-69
2021/10/16 11:12:37;;;;;;;3.83;3.30;;;;;;;15.33;56.13;101719.59;5058369;28;20481;-70
2021/10/16 11:15:04;;;;;;;6.13;3.30;;;;;;;15.61;55.97;101719.72;5058338;28;20174;-69
2021/10/16 11:17:39;;;;;;;7.93;3.77;;;;;;;15.04;56.97;101714.16;5058153;28;20813;-69
2021/10/16 11:20:07;;;;;;;7.40;3.73;;;;;;;15.21;57.07;101716.88;5057873;28;20423;-70
2021/10/16 11:22:43;;;;;;;6.30;3.50;;;;;;;15.33;56.83;101719.59;5058059;28;20478;-69
2021/10/16 11:25:14;;;;;;;8.63;4.07;;;;;;;15.43;56.67;101712.63;5040759;28;20506;-70